Deer Park, Missouri
Current Conditions -  °F | °C
As of 8:54 PM on Monday 20 Oct 2014 (Local Time) from KCOU Reporting Station
Clear Clear  
Wind Chill: 58°   Ceiling: Unl
Heat Index: 58°   Visibility: 10mi
Dew Point: 43°   Wind: 5mph
Humidity: 58%   Direction: 340°NNW
Pressure: 30.04"   Gusts: NA
Location:  38.8994°N, 92.2391°W
Report Text: KCOU 210154Z 34004KT 10SM CLR 14/06 A3004 RMK AO2 SLP170 T01440061
Loading
Personal Weather Stations






























Interactive Weather Map
Tropical Storm Tracking
New forecast layout! Learn more

10-Day Weather Forecast

Advertisements
Track Severe Weather on mobile